Huvudsida
METAR-TAF:

METAR-TAF

Flygplatser :

Trapani-Birgi flygplats

Trapani, Italien

latitud: 37-55N, longitud: 012-30E, höjd: 7 m

Aktuellt väderrapport

Denna rapport gjordes för 1 timme och 8 minuter sedan, klockan 17:55 UTC
Vind 5 kt från nord
Temperatur 14°C
Fuktighet 82%
Tryck 1019 hPa
Sikt 10 km eller mer
Få moln på en höjd av 1800 ft

METAR: LICT 281755Z 35005KT 9999 FEW018 14/11 Q1019 RMK FEW VIS MIN 9999 WIND THR13 33008KT BLU

Tid: 20:03 (19:03 UTC)

Väderprognos

Denna rapport gjordes för 2 timmar och 3 minuter sedan, klockan 17:00 UTC
Prognos gäller från 28 kl. 18 UTC till 29 kl. 03 UTC
Vind 6 kt från nord
Sikt 10 km eller mer
Få moln på en höjd av 1500 ft
Temporärt
från 28 kl. 18 UTC till 28 kl. 19 UTC
Vind 12 kt från väst/nordväst i byarna ända upp till 22 kt
Blir
från 29 kl. 00 UTC till 29 kl. 02 UTC
Vind 5 kt från ost

TAF: LICT 281700Z 2818/2903 36006KT 9999 FEW015 TEMPO 2818/2819 30012G22KT BECMG 2900/2902 10005KT

Aktuella väderrapporter och prognoser från 4000 flygplatser (METAR- och TAF-rapporter).

De tillgängliga stationerna syns som gula och röda prickar på kartan.

För musen över prickarna för att se namnen på stationerna.

Klicka sedan för att få väderrapporter och prognoser.

För att ändra kartan: Klicka på de gröna knapparna med ett svart kors på för att zooma in; den gröna knappen med ett streck på för att zooma ut; eller på de gröna pilarna för angränsande kartor.


METAR-TAF: